Forside
METAR-TAF:

METAR-TAF

Lufthavne :

Driggs, Idaho, USA

Breddekreds: 43-44-33N, længdekreds: 111-05-51W, højde: 1899 m

Aktuelle vejr

Denne rapport blev lavet for 1 time og 29 minutter siden, kl. 23:17 UTC
Vind 11 kt fra sydsydøst
Temperatur -7°C
Fugtighed 79%
Tryk 1017 hPa
Sigt: 14.5 km
Overskyet i en højde af 3300 ft
let sne

METAR: KDIJ 232317Z AUTO 15011KT 9SM -SN OVC033 M07/M10 A3003 RMK AO2 P0000

Tid: 17:46 (00:46 UTC)

Vejrudsigter

Denne rapport blev lavet for 1 time og 12 minutter siden, kl. 23:34 UTC
Foreløbig gælder fra 24 på 00 UTC til 24 på 24 UTC
Vind 11 kt fra syd
Sigt: 9.7 km
Overskyet i en højde af 3500 ft
let sne
Fra 24 på 0900 UTC
Vind 13 kt fra syd
Sigt: 3.2 km
Brudte skyer i en højde af 800 ft
Overskyet i en højde af 1500 ft
let sne, dis

TAF: KDIJ 232334Z 2400/2424 18011KT 6SM -SN OVC035 FM240900 19013KT 2SM -SN BR BKN008 OVC015 AMD LTD TO CLD VIS AND WIND

Vejrobservationer og prognoser fra mere end 4000 lufthavne (METAR og TAF).

De gule og røde prikker repræsenterer de meteorologiske stationer.

Flyt musen over at se navnet på stationen.

Så klik over at se vejr observationer og prognoser.

At skifte det kort: Klik på de grønne knapper med et sort kors for at zoome ind; på den grønne knap med en bindestreg for at zoome ud; eller på de grønne pile for tilstødende kort.


METAR-TAF: